Weather History for KCEY - December, 2013

Change the Weather History Date:

Friday, December 6, 2013

  Actual Average (KPAH) Record (KPAH)
Temperature  
Mean Temperature 28 °F 40 °F  
Max Temperature 32 °F 49 °F 72 °F (1951)
Min Temperature 23 °F 31 °F 5 °F (1984)
Degree Days  
Heating Degree Days 38 25  
Month to date heating degree days 145  
Since 1 July heating degree days 922  
Cooling Degree Days 0 0  
Month to date cooling degree days 0  
Year to date cooling degree days 1542  
Moisture  
Dew Point 25 °F    
Average Humidity 92    
Maximum Humidity 100    
Minimum Humidity 86    
Precipitation  
Precipitation 0.27 in 0.15 in 1.62 in (1957)
Month to date precipitation 0.92  
Year to date precipitation 45.41  
Snow  
Snow 0.00 in 0.00 in 4.80 in (2013)
Month to date snowfall 0.2  
Since 1 July snowfall 0.3  
Snow Depth -    
Sea Level Pressure  
Sea Level Pressure 30.24 in    
Wind  
Wind Speed 14 mph (NNE)    
Max Wind Speed 18 mph    
Max Gust Speed 29 mph    
Visibility 6 miles    
Events      
T = Trace of Precipitation, MM = Missing Value Source: NWS Daily Summary

Daily Weather History Graph

Daily Weather History Graph

Search for Another Location

Airport or City:

Trip Planner

Search our weather history database for the weather conditions in past years. The results will help you decide how hot, cold, wet, or windy it might be!

Date:

Astronomy

Dec. 06, 2013 Rise Set
Actual Time 6:51 AM CST 4:37 PM CST
Civil Twilight 6:23 AM CST 5:05 PM CST
Nautical Twilight 5:51 AM CST 5:38 PM CST
Astronomical Twilight 5:19 AM CST 6:09 PM CST
Moon 10:00 AM CST (12/6) 9:04 PM CST (12/6)
Length of Visible Light 10h 42m
Length of Day
9h 45m
Waxing Crescent, 19% of the Moon is Illuminated
Dec 6
Waxing Crescent
Dec 9
First Quarter
Dec 17
Full
Dec 25
Last Quarter
Jan 1
New

Hourly Weather History & Observations

Time (CST) Temp. Windchill Dew Point Humidity Pressure Visibility Wind Dir Wind Speed Gust Speed Precip Events Conditions
12:15 AM 32.0 °F 23.6 °F 28.4 °F 87% 30.17 in 9.0 mi North 10.4 mph - N/A   Overcast
12:35 AM 32.0 °F 22.5 °F 28.4 °F 87% 30.19 in 3.0 mi North 12.7 mph - 0.02 in   Overcast
12:55 AM 30.2 °F 19.3 °F 28.4 °F 93% 30.19 in 5.0 mi North 15.0 mph - 0.03 in   Overcast
1:15 AM 30.2 °F 20.8 °F 28.4 °F 93% 30.19 in 6.0 mi North 11.5 mph - N/A   Overcast
1:35 AM 30.2 °F 19.3 °F 28.4 °F 93% 30.16 in 5.0 mi NNE 15.0 mph 19.6 mph 0.01 in   Overcast
1:55 AM 30.2 °F 19.8 °F 28.4 °F 93% 30.14 in 8.0 mi NNE 13.8 mph 20.7 mph 0.01 in   Overcast
2:15 AM 30.2 °F 18.9 °F 28.4 °F 93% 30.13 in 10.0 mi NNE 16.1 mph 20.7 mph N/A   Overcast
2:35 AM 30.2 °F 20.2 °F 28.4 °F 93% 30.12 in 10.0 mi NNE 12.7 mph 18.4 mph N/A   Overcast
2:55 AM 30.2 °F 19.3 °F 28.4 °F 93% 30.12 in 7.0 mi NNE 15.0 mph 21.9 mph N/A   Overcast
3:15 AM 30.2 °F 19.3 °F 28.4 °F 93% 30.12 in 10.0 mi NE 15.0 mph 21.9 mph 0.01 in   Overcast
3:35 AM 30.2 °F 18.5 °F 28.4 °F 93% 30.11 in 10.0 mi NNE 17.3 mph 20.7 mph 0.01 in   Overcast
3:55 AM 30.2 °F 20.2 °F 28.4 °F 93% 30.13 in 10.0 mi NE 12.7 mph - 0.01 in   Overcast
4:15 AM 30.2 °F 21.9 °F 28.4 °F 93% 30.14 in 10.0 mi NNE 9.2 mph - N/A   Overcast
4:35 AM 32.0 °F 23.0 °F 28.4 °F 87% 30.13 in 10.0 mi NE 11.5 mph - N/A   Overcast
4:55 AM 32.0 °F 22.5 °F 28.4 °F 87% 30.16 in 10.0 mi North 12.7 mph 16.1 mph N/A   Overcast
5:15 AM 30.2 °F 20.2 °F 28.4 °F 93% 30.16 in 6.0 mi North 12.7 mph 18.4 mph N/A   Overcast
5:55 AM 28.4 °F 16.6 °F 26.6 °F 93% 30.14 in 10.0 mi NNE 16.1 mph 21.9 mph N/A   Overcast
6:15 AM 28.4 °F 18.0 °F 26.6 °F 93% 30.16 in 10.0 mi North 12.7 mph 21.9 mph N/A   Overcast
6:35 AM 28.4 °F 16.6 °F 26.6 °F 93% 30.19 in 7.0 mi North 16.1 mph 19.6 mph N/A   Overcast
6:55 AM 26.6 °F 15.7 °F 24.8 °F 93% 30.20 in 7.0 mi North 12.7 mph 20.7 mph N/A   Overcast
7:15 AM 26.6 °F 13.8 °F 24.8 °F 93% 30.20 in 8.0 mi North 17.3 mph 21.9 mph N/A   Overcast
7:35 AM 26.6 °F 14.3 °F 24.8 °F 93% 30.19 in 4.0 mi North 16.1 mph 23.0 mph N/A   Overcast
7:55 AM 26.6 °F 16.2 °F 24.8 °F 93% 30.22 in 2.5 mi North 11.5 mph 23.0 mph N/A   Mostly Cloudy
8:15 AM 28.4 °F 17.5 °F 26.6 °F 93% 30.19 in 2.0 mi NNE 13.8 mph 19.6 mph 0.01 in   Scattered Clouds
8:35 AM 28.4 °F 17.0 °F 26.6 °F 93% 30.18 in 1.2 mi NNE 15.0 mph - 0.02 in   Mostly Cloudy
8:55 AM 28.4 °F 18.0 °F 26.6 °F 93% 30.19 in 1.8 mi North 12.7 mph 21.9 mph 0.03 in   Mostly Cloudy
9:15 AM 28.4 °F 17.0 °F 26.6 °F 93% 30.20 in 2.0 mi North 15.0 mph 20.7 mph N/A   Mostly Cloudy
9:35 AM 28.4 °F 18.0 °F 26.6 °F 93% 30.21 in 2.5 mi North 12.7 mph 24.2 mph 0.01 in   Scattered Clouds
9:55 AM 28.4 °F 17.5 °F 26.6 °F 93% 30.20 in 1.5 mi NNE 13.8 mph 20.7 mph 0.02 in   Scattered Clouds
10:15 AM 28.4 °F 17.0 °F 26.6 °F 93% 30.21 in 0.8 mi North 15.0 mph 20.7 mph 0.01 in   Unknown
10:35 AM 28.4 °F 16.6 °F 26.6 °F 93% 30.19 in 1.8 mi NNE 16.1 mph 23.0 mph 0.02 in   Unknown
10:55 AM 28.4 °F 15.8 °F 26.6 °F 93% 30.19 in 1.5 mi North 18.4 mph 23.0 mph 0.05 in   Unknown
11:15 AM 26.6 °F 16.2 °F 26.6 °F 100% 30.17 in 2.0 mi North 11.5 mph 27.6 mph 0.01 in   Scattered Clouds
11:35 AM 26.6 °F 15.2 °F 26.6 °F 100% 30.19 in 1.5 mi North 13.8 mph 23.0 mph 0.03 in   Unknown
11:55 AM 26.6 °F 13.8 °F 26.6 °F 100% 30.20 in 1.2 mi North 17.3 mph 24.2 mph 0.05 in   Unknown
12:15 PM 26.6 °F 13.8 °F 24.8 °F 93% 30.19 in 1.8 mi North 17.3 mph 28.8 mph N/A   Unknown
12:35 PM 26.6 °F 14.7 °F 24.8 °F 93% 30.18 in 2.0 mi NNE 15.0 mph 21.9 mph 0.01 in   Clear
12:55 PM 26.6 °F 13.4 °F 24.8 °F 93% 30.18 in 1.8 mi North 18.4 mph 24.2 mph 0.02 in   Unknown
1:15 PM 26.6 °F 15.7 °F 24.8 °F 93% 30.20 in 5.0 mi North 12.7 mph 20.7 mph N/A   Clear
1:35 PM 24.8 °F 13.4 °F 23.0 °F 93% 30.20 in 1.8 mi North 12.7 mph 21.9 mph 0.01 in   Unknown
1:55 PM 24.8 °F 14.0 °F 23.0 °F 93% 30.20 in 2.0 mi North 11.5 mph 20.7 mph 0.02 in   Clear
2:15 PM 24.8 °F 13.4 °F 23.0 °F 93% 30.22 in 2.0 mi North 12.7 mph 20.7 mph 0.01 in   Clear
2:35 PM 24.8 °F 11.5 °F 23.0 °F 93% 30.20 in 1.8 mi North 17.3 mph 25.3 mph 0.02 in   Unknown
2:55 PM 24.8 °F 11.5 °F 23.0 °F 93% 30.25 in 4.0 mi North 17.3 mph 23.0 mph 0.02 in   Clear
3:15 PM 24.8 °F 12.4 °F 23.0 °F 93% 30.26 in 5.0 mi North 15.0 mph 25.3 mph 0.01 in   Clear
3:35 PM 24.8 °F 11.5 °F 23.0 °F 93% 30.26 in 2.5 mi NNE 17.3 mph 23.0 mph 0.01 in   Clear
3:55 PM 24.8 °F 14.6 °F 23.0 °F 93% 30.26 in 3.0 mi NNE 10.4 mph 21.9 mph 0.01 in   Clear
4:15 PM 24.8 °F 14.0 °F 23.0 °F 93% 30.28 in 5.0 mi North 11.5 mph 20.7 mph N/A   Clear
4:35 PM 24.8 °F 13.4 °F 23.0 °F 93% 30.30 in 8.0 mi North 12.7 mph 19.6 mph N/A   Partly Cloudy
6:15 PM 24.8 °F 11.1 °F 21.2 °F 86% 30.32 in 10.0 mi North 18.4 mph 25.3 mph N/A   Overcast
6:35 PM 23.0 °F 11.7 °F 21.2 °F 93% 30.34 in 10.0 mi North 11.5 mph 19.6 mph N/A   Overcast
6:55 PM 23.0 °F 11.7 °F 21.2 °F 93% 30.35 in 10.0 mi North 11.5 mph 20.7 mph N/A   Overcast
7:15 PM 23.0 °F 10.1 °F 21.2 °F 93% 30.35 in 10.0 mi North 15.0 mph 23.0 mph N/A   Overcast
7:35 PM 23.0 °F 10.1 °F 19.4 °F 86% 30.36 in 10.0 mi NNE 15.0 mph 24.2 mph N/A   Mostly Cloudy
7:55 PM 23.0 °F 10.1 °F 19.4 °F 86% 30.37 in 10.0 mi North 15.0 mph 20.7 mph N/A   Mostly Cloudy
8:15 PM 23.0 °F 11.7 °F 21.2 °F 93% 30.38 in 6.0 mi North 11.5 mph 18.4 mph N/A   Overcast
8:35 PM 23.0 °F 11.7 °F 21.2 °F 93% 30.40 in 9.0 mi North 11.5 mph 17.3 mph N/A   Overcast
8:55 PM 23.0 °F 11.7 °F 21.2 °F 93% 30.40 in 10.0 mi NNE 11.5 mph 17.3 mph N/A   Overcast
9:15 PM 23.0 °F 10.6 °F 21.2 °F 93% 30.40 in 10.0 mi North 13.8 mph 18.4 mph N/A   Overcast
9:35 PM 23.0 °F 9.6 °F 21.2 °F 93% 30.41 in 10.0 mi North 16.1 mph - N/A   Overcast
9:55 PM 23.0 °F 11.1 °F 21.2 °F 93% 30.41 in 10.0 mi North 12.7 mph - N/A   Overcast
10:15 PM 23.0 °F 10.6 °F 21.2 °F 93% 30.42 in 10.0 mi North 13.8 mph - N/A   Overcast
10:35 PM 23.0 °F 12.4 °F 19.4 °F 86% 30.43 in 10.0 mi North 10.4 mph - N/A   Overcast
10:55 PM 23.0 °F 12.4 °F 19.4 °F 86% 30.44 in 10.0 mi North 10.4 mph 17.3 mph N/A   Overcast
11:15 PM 23.0 °F 12.4 °F 21.2 °F 93% 30.45 in 10.0 mi North 10.4 mph - N/A   Overcast
11:35 PM 23.0 °F 11.7 °F 19.4 °F 86% 30.45 in 10.0 mi North 11.5 mph 18.4 mph N/A   Overcast
11:55 PM 23.0 °F 9.6 °F 19.4 °F 86% 30.46 in 10.0 mi North 16.1 mph 19.6 mph N/A   Overcast